sensor_id;sensor_type;location;lat;lon;timestamp;P1;durP1;ratioP1;P2;durP2;ratioP2
485;SDS011;229;48.734;9.340;2023-04-15T00:02:04;4.55;;;4.13;;
485;SDS011;229;48.734;9.340;2023-04-15T00:04:40;5.28;;;4.22;;
485;SDS011;229;48.734;9.340;2023-04-15T00:07:07;6.57;;;4.85;;
485;SDS011;229;48.734;9.340;2023-04-15T00:09:35;5.35;;;4.40;;
485;SDS011;229;48.734;9.340;2023-04-15T00:12:02;7.47;;;4.70;;
485;SDS011;229;48.734;9.340;2023-04-15T00:14:29;7.13;;;4.55;;
485;SDS011;229;48.734;9.340;2023-04-15T00:16:56;12.10;;;4.68;;
485;SDS011;229;48.734;9.340;2023-04-15T00:19:23;5.57;;;4.15;;
485;SDS011;229;48.734;9.340;2023-04-15T00:21:52;5.63;;;3.60;;
485;SDS011;229;48.734;9.340;2023-04-15T00:24:19;4.72;;;4.40;;
485;SDS011;229;48.734;9.340;2023-04-15T00:26:47;5.45;;;4.20;;
485;SDS011;229;48.734;9.340;2023-04-15T00:29:14;8.07;;;4.85;;
485;SDS011;229;48.734;9.340;2023-04-15T00:31:41;5.05;;;4.75;;
485;SDS011;229;48.734;9.340;2023-04-15T00:34:08;8.15;;;5.18;;
485;SDS011;229;48.734;9.340;2023-04-15T00:36:35;7.68;;;5.45;;
485;SDS011;229;48.734;9.340;2023-04-15T00:39:04;6.30;;;4.60;;
485;SDS011;229;48.734;9.340;2023-04-15T00:41:31;8.02;;;4.20;;
485;SDS011;229;48.734;9.340;2023-04-15T00:44:00;7.05;;;4.72;;
485;SDS011;229;48.734;9.340;2023-04-15T00:46:27;7.60;;;4.95;;
485;SDS011;229;48.734;9.340;2023-04-15T00:48:55;6.28;;;4.90;;
485;SDS011;229;48.734;9.340;2023-04-15T00:51:22;6.32;;;4.60;;
485;SDS011;229;48.734;9.340;2023-04-15T00:53:50;9.07;;;4.85;;
485;SDS011;229;48.734;9.340;2023-04-15T00:56:19;8.45;;;4.82;;
485;SDS011;229;48.734;9.340;2023-04-15T00:58:48;6.50;;;4.20;;
485;SDS011;229;48.734;9.340;2023-04-15T01:01:15;10.13;;;4.68;;
485;SDS011;229;48.734;9.340;2023-04-15T01:03:42;7.38;;;4.90;;
485;SDS011;229;48.734;9.340;2023-04-15T01:06:10;7.65;;;5.68;;
485;SDS011;229;48.734;9.340;2023-04-15T01:08:37;7.05;;;5.35;;
485;SDS011;229;48.734;9.340;2023-04-15T01:11:04;7.80;;;5.70;;
485;SDS011;229;48.734;9.340;2023-04-15T01:13:33;6.53;;;5.10;;
485;SDS011;229;48.734;9.340;2023-04-15T01:16:02;6.90;;;5.97;;
485;SDS011;229;48.734;9.340;2023-04-15T01:18:29;8.80;;;4.93;;
485;SDS011;229;48.734;9.340;2023-04-15T01:20:56;11.20;;;6.00;;
485;SDS011;229;48.734;9.340;2023-04-15T01:23:24;8.82;;;5.43;;
485;SDS011;229;48.734;9.340;2023-04-15T01:25:52;6.25;;;5.35;;
485;SDS011;229;48.734;9.340;2023-04-15T01:28:20;8.63;;;5.45;;
485;SDS011;229;48.734;9.340;2023-04-15T01:30:47;7.22;;;5.80;;
485;SDS011;229;48.734;9.340;2023-04-15T01:33:14;8.20;;;5.30;;
485;SDS011;229;48.734;9.340;2023-04-15T01:35:41;6.82;;;5.65;;
485;SDS011;229;48.734;9.340;2023-04-15T01:38:09;6.90;;;5.68;;
485;SDS011;229;48.734;9.340;2023-04-15T01:40:37;7.03;;;5.28;;
485;SDS011;229;48.734;9.340;2023-04-15T01:43:06;7.18;;;5.95;;
485;SDS011;229;48.734;9.340;2023-04-15T01:45:33;7.20;;;5.28;;
485;SDS011;229;48.734;9.340;2023-04-15T01:48:01;8.57;;;6.53;;
485;SDS011;229;48.734;9.340;2023-04-15T01:50:28;6.97;;;5.32;;
485;SDS011;229;48.734;9.340;2023-04-15T01:52:55;9.10;;;5.85;;
485;SDS011;229;48.734;9.340;2023-04-15T01:55:22;8.32;;;5.38;;
485;SDS011;229;48.734;9.340;2023-04-15T01:57:49;7.53;;;5.25;;
485;SDS011;229;48.734;9.340;2023-04-15T02:00:18;6.43;;;5.22;;
485;SDS011;229;48.734;9.340;2023-04-15T02:02:46;8.45;;;5.40;;
485;SDS011;229;48.734;9.340;2023-04-15T02:05:13;5.60;;;4.65;;
485;SDS011;229;48.734;9.340;2023-04-15T02:07:41;8.85;;;5.38;;
485;SDS011;229;48.734;9.340;2023-04-15T02:10:08;7.97;;;6.28;;
485;SDS011;229;48.734;9.340;2023-04-15T02:12:37;6.97;;;5.70;;
485;SDS011;229;48.734;9.340;2023-04-15T02:15:05;6.18;;;5.80;;
485;SDS011;229;48.734;9.340;2023-04-15T02:17:34;10.35;;;6.32;;
485;SDS011;229;48.734;9.340;2023-04-15T02:20:01;12.32;;;6.03;;
485;SDS011;229;48.734;9.340;2023-04-15T02:22:30;6.07;;;5.63;;
485;SDS011;229;48.734;9.340;2023-04-15T02:24:57;6.95;;;5.57;;
485;SDS011;229;48.734;9.340;2023-04-15T02:27:24;5.93;;;5.38;;
485;SDS011;229;48.734;9.340;2023-04-15T02:29:52;7.40;;;5.40;;
485;SDS011;229;48.734;9.340;2023-04-15T02:32:19;10.27;;;6.13;;
485;SDS011;229;48.734;9.340;2023-04-15T02:34:49;10.77;;;6.25;;
485;SDS011;229;48.734;9.340;2023-04-15T02:37:17;10.07;;;7.18;;
485;SDS011;229;48.734;9.340;2023-04-15T02:39:44;10.93;;;6.43;;
485;SDS011;229;48.734;9.340;2023-04-15T02:42:11;14.25;;;7.28;;
485;SDS011;229;48.734;9.340;2023-04-15T02:44:38;8.00;;;6.18;;
485;SDS011;229;48.734;9.340;2023-04-15T02:47:06;7.57;;;6.43;;
485;SDS011;229;48.734;9.340;2023-04-15T02:49:33;9.63;;;7.45;;
485;SDS011;229;48.734;9.340;2023-04-15T02:52:01;10.10;;;6.50;;
485;SDS011;229;48.734;9.340;2023-04-15T02:54:28;8.52;;;6.05;;
485;SDS011;229;48.734;9.340;2023-04-15T02:56:57;7.05;;;6.03;;
485;SDS011;229;48.734;9.340;2023-04-15T02:59:25;11.55;;;6.60;;
485;SDS011;229;48.734;9.340;2023-04-15T03:01:52;7.25;;;6.53;;
485;SDS011;229;48.734;9.340;2023-04-15T03:04:20;9.73;;;6.95;;
485;SDS011;229;48.734;9.340;2023-04-15T03:06:47;10.00;;;6.85;;
485;SDS011;229;48.734;9.340;2023-04-15T03:09:16;8.77;;;6.63;;
485;SDS011;229;48.734;9.340;2023-04-15T03:11:43;11.82;;;7.05;;
485;SDS011;229;48.734;9.340;2023-04-15T03:14:10;11.98;;;6.95;;
485;SDS011;229;48.734;9.340;2023-04-15T03:16:37;12.88;;;6.95;;
485;SDS011;229;48.734;9.340;2023-04-15T03:19:05;9.48;;;6.93;;
485;SDS011;229;48.734;9.340;2023-04-15T03:21:32;12.35;;;7.10;;
485;SDS011;229;48.734;9.340;2023-04-15T03:23:59;11.50;;;6.35;;
485;SDS011;229;48.734;9.340;2023-04-15T03:26:28;9.73;;;7.05;;
485;SDS011;229;48.734;9.340;2023-04-15T03:28:56;10.02;;;6.55;;
485;SDS011;229;48.734;9.340;2023-04-15T03:31:23;11.18;;;6.68;;
485;SDS011;229;48.734;9.340;2023-04-15T03:33:50;8.18;;;7.05;;
485;SDS011;229;48.734;9.340;2023-04-15T03:36:18;10.68;;;6.97;;
485;SDS011;229;48.734;9.340;2023-04-15T03:38:45;14.07;;;7.63;;
485;SDS011;229;48.734;9.340;2023-04-15T03:41:13;11.38;;;6.65;;
485;SDS011;229;48.734;9.340;2023-04-15T03:43:42;11.20;;;7.35;;
485;SDS011;229;48.734;9.340;2023-04-15T03:46:09;9.90;;;7.15;;
485;SDS011;229;48.734;9.340;2023-04-15T03:48:36;14.52;;;7.85;;
485;SDS011;229;48.734;9.340;2023-04-15T03:51:03;13.18;;;7.95;;
485;SDS011;229;48.734;9.340;2023-04-15T03:53:30;10.00;;;6.88;;
485;SDS011;229;48.734;9.340;2023-04-15T03:55:57;10.10;;;7.10;;
485;SDS011;229;48.734;9.340;2023-04-15T03:58:25;9.50;;;7.10;;
485;SDS011;229;48.734;9.340;2023-04-15T04:00:53;17.65;;;8.23;;
485;SDS011;229;48.734;9.340;2023-04-15T04:03:21;10.48;;;6.95;;
485;SDS011;229;48.734;9.340;2023-04-15T04:05:48;8.38;;;7.20;;
485;SDS011;229;48.734;9.340;2023-04-15T04:08:15;10.23;;;7.63;;
485;SDS011;229;48.734;9.340;2023-04-15T04:10:43;9.60;;;6.35;;
485;SDS011;229;48.734;9.340;2023-04-15T04:13:10;14.55;;;7.95;;
485;SDS011;229;48.734;9.340;2023-04-15T04:15:38;6.82;;;6.40;;
485;SDS011;229;48.734;9.340;2023-04-15T04:18:06;13.25;;;8.20;;
485;SDS011;229;48.734;9.340;2023-04-15T04:20:33;12.40;;;8.98;;
485;SDS011;229;48.734;9.340;2023-04-15T04:23:01;12.02;;;7.72;;
485;SDS011;229;48.734;9.340;2023-04-15T04:25:28;13.30;;;8.50;;
485;SDS011;229;48.734;9.340;2023-04-15T04:27:55;10.00;;;7.75;;
485;SDS011;229;48.734;9.340;2023-04-15T04:30:22;14.98;;;9.48;;
485;SDS011;229;48.734;9.340;2023-04-15T04:32:49;11.45;;;7.85;;
485;SDS011;229;48.734;9.340;2023-04-15T04:35:18;16.20;;;8.70;;
485;SDS011;229;48.734;9.340;2023-04-15T04:37:46;14.43;;;8.02;;
485;SDS011;229;48.734;9.340;2023-04-15T04:40:13;12.77;;;8.30;;
485;SDS011;229;48.734;9.340;2023-04-15T04:42:40;16.20;;;8.82;;
485;SDS011;229;48.734;9.340;2023-04-15T04:45:07;13.13;;;8.13;;
485;SDS011;229;48.734;9.340;2023-04-15T04:47:35;10.52;;;8.48;;
485;SDS011;229;48.734;9.340;2023-04-15T04:50:02;14.65;;;9.50;;
485;SDS011;229;48.734;9.340;2023-04-15T04:52:31;9.27;;;7.55;;
485;SDS011;229;48.734;9.340;2023-04-15T04:54:58;10.80;;;8.82;;
485;SDS011;229;48.734;9.340;2023-04-15T04:57:25;13.93;;;9.00;;
485;SDS011;229;48.734;9.340;2023-04-15T04:59:52;14.30;;;8.70;;
485;SDS011;229;48.734;9.340;2023-04-15T05:02:19;10.30;;;7.30;;
485;SDS011;229;48.734;9.340;2023-04-15T05:04:47;17.98;;;8.82;;
485;SDS011;229;48.734;9.340;2023-04-15T05:07:14;12.40;;;8.23;;
485;SDS011;229;48.734;9.340;2023-04-15T05:09:42;13.85;;;8.18;;
485;SDS011;229;48.734;9.340;2023-04-15T05:12:10;13.63;;;8.35;;
485;SDS011;229;48.734;9.340;2023-04-15T05:14:39;9.82;;;7.50;;
485;SDS011;229;48.734;9.340;2023-04-15T05:17:06;9.93;;;8.50;;
485;SDS011;229;48.734;9.340;2023-04-15T05:19:33;12.30;;;8.55;;
485;SDS011;229;48.734;9.340;2023-04-15T05:22:00;10.82;;;7.28;;
485;SDS011;229;48.734;9.340;2023-04-15T05:24:28;9.10;;;7.20;;
485;SDS011;229;48.734;9.340;2023-04-15T05:26:57;8.30;;;7.43;;
485;SDS011;229;48.734;9.340;2023-04-15T05:29:25;10.90;;;7.28;;
485;SDS011;229;48.734;9.340;2023-04-15T05:31:52;17.88;;;7.93;;
485;SDS011;229;48.734;9.340;2023-04-15T05:34:20;11.35;;;8.07;;
485;SDS011;229;48.734;9.340;2023-04-15T05:36:47;12.63;;;8.27;;
485;SDS011;229;48.734;9.340;2023-04-15T05:39:14;9.20;;;8.00;;
485;SDS011;229;48.734;9.340;2023-04-15T05:41:41;9.80;;;7.82;;
485;SDS011;229;48.734;9.340;2023-04-15T05:44:10;14.82;;;8.40;;
485;SDS011;229;48.734;9.340;2023-04-15T05:46:37;9.73;;;8.02;;
485;SDS011;229;48.734;9.340;2023-04-15T05:49:04;12.75;;;8.85;;
485;SDS011;229;48.734;9.340;2023-04-15T05:51:31;10.20;;;8.02;;
485;SDS011;229;48.734;9.340;2023-04-15T05:53:59;13.85;;;8.25;;
485;SDS011;229;48.734;9.340;2023-04-15T05:56:26;9.25;;;7.93;;
485;SDS011;229;48.734;9.340;2023-04-15T05:58:53;15.35;;;8.15;;
485;SDS011;229;48.734;9.340;2023-04-15T06:01:22;10.82;;;7.93;;
485;SDS011;229;48.734;9.340;2023-04-15T06:03:49;9.80;;;7.38;;
485;SDS011;229;48.734;9.340;2023-04-15T06:06:16;10.57;;;7.53;;
485;SDS011;229;48.734;9.340;2023-04-15T06:08:44;11.48;;;6.40;;
485;SDS011;229;48.734;9.340;2023-04-15T06:11:11;10.90;;;6.78;;
485;SDS011;229;48.734;9.340;2023-04-15T06:13:38;11.02;;;7.10;;
485;SDS011;229;48.734;9.340;2023-04-15T06:16:08;9.05;;;6.43;;
485;SDS011;229;48.734;9.340;2023-04-15T06:18:37;10.98;;;6.30;;
485;SDS011;229;48.734;9.340;2023-04-15T06:21:04;8.35;;;6.00;;
485;SDS011;229;48.734;9.340;2023-04-15T06:23:33;11.13;;;6.40;;
485;SDS011;229;48.734;9.340;2023-04-15T06:26:00;10.70;;;6.53;;
485;SDS011;229;48.734;9.340;2023-04-15T06:28:28;8.77;;;6.10;;
485;SDS011;229;48.734;9.340;2023-04-15T06:30:55;10.80;;;6.30;;
485;SDS011;229;48.734;9.340;2023-04-15T06:33:22;8.73;;;5.78;;
485;SDS011;229;48.734;9.340;2023-04-15T06:35:51;10.02;;;6.65;;
485;SDS011;229;48.734;9.340;2023-04-15T06:38:18;12.30;;;6.82;;
485;SDS011;229;48.734;9.340;2023-04-15T06:40:45;7.45;;;6.20;;
485;SDS011;229;48.734;9.340;2023-04-15T06:43:12;7.95;;;6.60;;
485;SDS011;229;48.734;9.340;2023-04-15T06:45:39;11.60;;;5.93;;
485;SDS011;229;48.734;9.340;2023-04-15T06:48:06;7.38;;;6.53;;
485;SDS011;229;48.734;9.340;2023-04-15T06:50:34;8.95;;;6.18;;
485;SDS011;229;48.734;9.340;2023-04-15T06:53:03;8.98;;;6.55;;
485;SDS011;229;48.734;9.340;2023-04-15T06:55:30;7.97;;;6.07;;
485;SDS011;229;48.734;9.340;2023-04-15T06:57:58;9.90;;;6.70;;
485;SDS011;229;48.734;9.340;2023-04-15T07:00:25;11.57;;;7.07;;
485;SDS011;229;48.734;9.340;2023-04-15T07:02:52;15.00;;;7.25;;
485;SDS011;229;48.734;9.340;2023-04-15T07:05:20;9.77;;;6.32;;
485;SDS011;229;48.734;9.340;2023-04-15T07:07:47;9.05;;;6.03;;
485;SDS011;229;48.734;9.340;2023-04-15T07:10:16;8.25;;;5.60;;
485;SDS011;229;48.734;9.340;2023-04-15T07:12:44;12.02;;;6.60;;
485;SDS011;229;48.734;9.340;2023-04-15T07:15:14;7.05;;;5.78;;
485;SDS011;229;48.734;9.340;2023-04-15T07:17:42;8.82;;;6.75;;
485;SDS011;229;48.734;9.340;2023-04-15T07:20:09;9.50;;;7.30;;
485;SDS011;229;48.734;9.340;2023-04-15T07:22:36;9.48;;;6.45;;
485;SDS011;229;48.734;9.340;2023-04-15T07:25:04;9.80;;;6.70;;
485;SDS011;229;48.734;9.340;2023-04-15T07:27:33;9.20;;;6.80;;
485;SDS011;229;48.734;9.340;2023-04-15T07:30:00;9.23;;;6.60;;
485;SDS011;229;48.734;9.340;2023-04-15T07:32:27;10.70;;;7.10;;
485;SDS011;229;48.734;9.340;2023-04-15T07:34:55;13.20;;;7.57;;
485;SDS011;229;48.734;9.340;2023-04-15T07:37:22;8.77;;;6.53;;
485;SDS011;229;48.734;9.340;2023-04-15T07:39:49;9.35;;;7.68;;
485;SDS011;229;48.734;9.340;2023-04-15T07:42:16;11.18;;;7.15;;
485;SDS011;229;48.734;9.340;2023-04-15T07:44:45;10.50;;;7.80;;
485;SDS011;229;48.734;9.340;2023-04-15T07:47:12;8.27;;;6.35;;
485;SDS011;229;48.734;9.340;2023-04-15T07:49:40;10.20;;;7.13;;
485;SDS011;229;48.734;9.340;2023-04-15T07:52:08;13.25;;;7.18;;
485;SDS011;229;48.734;9.340;2023-04-15T07:54:35;9.10;;;6.65;;
485;SDS011;229;48.734;9.340;2023-04-15T07:57:02;10.40;;;6.10;;
485;SDS011;229;48.734;9.340;2023-04-15T07:59:30;10.32;;;6.18;;
485;SDS011;229;48.734;9.340;2023-04-15T08:01:59;10.85;;;6.80;;
485;SDS011;229;48.734;9.340;2023-04-15T08:04:27;11.77;;;6.88;;
485;SDS011;229;48.734;9.340;2023-04-15T08:06:55;8.82;;;7.25;;
485;SDS011;229;48.734;9.340;2023-04-15T08:09:22;6.68;;;6.30;;
485;SDS011;229;48.734;9.340;2023-04-15T08:11:51;8.43;;;6.53;;
485;SDS011;229;48.734;9.340;2023-04-15T08:14:18;9.07;;;5.65;;
485;SDS011;229;48.734;9.340;2023-04-15T08:16:45;9.88;;;6.55;;
485;SDS011;229;48.734;9.340;2023-04-15T08:19:14;7.55;;;5.75;;
485;SDS011;229;48.734;9.340;2023-04-15T08:21:41;10.77;;;6.40;;
485;SDS011;229;48.734;9.340;2023-04-15T08:24:08;8.88;;;6.32;;
485;SDS011;229;48.734;9.340;2023-04-15T08:26:35;12.18;;;5.60;;
485;SDS011;229;48.734;9.340;2023-04-15T08:29:02;8.43;;;6.10;;
485;SDS011;229;48.734;9.340;2023-04-15T08:31:30;7.03;;;5.82;;
485;SDS011;229;48.734;9.340;2023-04-15T08:33:57;9.95;;;6.80;;
485;SDS011;229;48.734;9.340;2023-04-15T08:36:25;8.77;;;6.10;;
485;SDS011;229;48.734;9.340;2023-04-15T08:38:53;10.40;;;6.72;;
485;SDS011;229;48.734;9.340;2023-04-15T08:41:20;11.13;;;6.50;;
485;SDS011;229;48.734;9.340;2023-04-15T08:43:51;20.65;;;6.15;;
485;SDS011;229;48.734;9.340;2023-04-15T08:46:18;10.75;;;5.85;;
485;SDS011;229;48.734;9.340;2023-04-15T08:48:47;12.88;;;6.00;;
485;SDS011;229;48.734;9.340;2023-04-15T08:51:14;6.55;;;5.90;;
485;SDS011;229;48.734;9.340;2023-04-15T08:53:43;9.40;;;5.78;;
485;SDS011;229;48.734;9.340;2023-04-15T08:56:12;9.95;;;6.35;;
485;SDS011;229;48.734;9.340;2023-04-15T08:58:40;13.82;;;6.75;;
485;SDS011;229;48.734;9.340;2023-04-15T09:01:07;7.25;;;5.45;;
485;SDS011;229;48.734;9.340;2023-04-15T09:03:35;9.52;;;5.50;;
485;SDS011;229;48.734;9.340;2023-04-15T09:06:03;8.30;;;5.28;;
485;SDS011;229;48.734;9.340;2023-04-15T09:08:30;8.63;;;5.38;;
485;SDS011;229;48.734;9.340;2023-04-15T09:10:59;10.88;;;5.05;;
485;SDS011;229;48.734;9.340;2023-04-15T09:13:27;13.32;;;5.40;;
485;SDS011;229;48.734;9.340;2023-04-15T09:15:54;10.88;;;4.95;;
485;SDS011;229;48.734;9.340;2023-04-15T09:18:28;6.53;;;5.47;;
485;SDS011;229;48.734;9.340;2023-04-15T09:21:02;7.70;;;5.10;;
485;SDS011;229;48.734;9.340;2023-04-15T09:23:30;8.67;;;6.00;;
485;SDS011;229;48.734;9.340;2023-04-15T09:25:59;5.43;;;5.03;;
485;SDS011;229;48.734;9.340;2023-04-15T09:28:27;8.43;;;5.10;;
485;SDS011;229;48.734;9.340;2023-04-15T09:30:54;11.20;;;5.47;;
485;SDS011;229;48.734;9.340;2023-04-15T09:33:22;8.40;;;5.33;;
485;SDS011;229;48.734;9.340;2023-04-15T09:35:57;6.67;;;5.30;;
485;SDS011;229;48.734;9.340;2023-04-15T09:38:24;6.00;;;4.80;;
485;SDS011;229;48.734;9.340;2023-04-15T09:40:51;6.93;;;5.13;;
485;SDS011;229;48.734;9.340;2023-04-15T09:43:20;5.13;;;4.27;;
485;SDS011;229;48.734;9.340;2023-04-15T09:45:48;7.83;;;4.53;;
485;SDS011;229;48.734;9.340;2023-04-15T09:48:16;9.13;;;5.27;;
485;SDS011;229;48.734;9.340;2023-04-15T09:50:45;7.00;;;4.13;;
485;SDS011;229;48.734;9.340;2023-04-15T09:53:15;5.30;;;4.37;;
485;SDS011;229;48.734;9.340;2023-04-15T09:55:44;6.30;;;4.70;;
485;SDS011;229;48.734;9.340;2023-04-15T09:58:16;4.00;;;3.83;;
485;SDS011;229;48.734;9.340;2023-04-15T10:00:46;7.50;;;4.72;;
485;SDS011;229;48.734;9.340;2023-04-15T10:03:14;8.40;;;4.38;;
485;SDS011;229;48.734;9.340;2023-04-15T10:05:41;9.77;;;4.22;;
485;SDS011;229;48.734;9.340;2023-04-15T10:08:09;6.05;;;4.72;;
485;SDS011;229;48.734;9.340;2023-04-15T10:10:36;7.97;;;4.60;;
485;SDS011;229;48.734;9.340;2023-04-15T10:13:03;5.28;;;4.00;;
485;SDS011;229;48.734;9.340;2023-04-15T10:15:31;10.48;;;4.57;;
485;SDS011;229;48.734;9.340;2023-04-15T10:18:00;7.20;;;4.70;;
485;SDS011;229;48.734;9.340;2023-04-15T10:20:28;5.22;;;4.68;;
485;SDS011;229;48.734;9.340;2023-04-15T10:22:56;7.30;;;4.63;;
485;SDS011;229;48.734;9.340;2023-04-15T10:25:23;11.80;;;4.55;;
485;SDS011;229;48.734;9.340;2023-04-15T10:27:52;6.93;;;4.15;;
485;SDS011;229;48.734;9.340;2023-04-15T10:30:20;6.45;;;4.68;;
485;SDS011;229;48.734;9.340;2023-04-15T10:32:48;7.40;;;4.35;;
485;SDS011;229;48.734;9.340;2023-04-15T10:35:17;7.45;;;4.60;;
485;SDS011;229;48.734;9.340;2023-04-15T10:37:45;7.40;;;4.50;;
485;SDS011;229;48.734;9.340;2023-04-15T10:40:22;11.70;;;4.30;;
485;SDS011;229;48.734;9.340;2023-04-15T10:42:51;9.55;;;4.50;;
485;SDS011;229;48.734;9.340;2023-04-15T10:45:18;7.10;;;4.27;;
485;SDS011;229;48.734;9.340;2023-04-15T10:47:45;7.57;;;4.80;;
485;SDS011;229;48.734;9.340;2023-04-15T10:50:19;7.57;;;5.10;;
485;SDS011;229;48.734;9.340;2023-04-15T10:52:49;6.13;;;4.80;;
485;SDS011;229;48.734;9.340;2023-04-15T10:55:18;5.70;;;4.47;;
485;SDS011;229;48.734;9.340;2023-04-15T10:57:45;7.32;;;4.18;;
485;SDS011;229;48.734;9.340;2023-04-15T11:00:13;11.27;;;5.20;;
485;SDS011;229;48.734;9.340;2023-04-15T11:02:41;8.20;;;5.03;;
485;SDS011;229;48.734;9.340;2023-04-15T11:05:08;8.25;;;4.45;;
485;SDS011;229;48.734;9.340;2023-04-15T11:07:38;7.32;;;4.47;;
485;SDS011;229;48.734;9.340;2023-04-15T11:12:57;5.45;;;4.40;;
485;SDS011;229;48.734;9.340;2023-04-15T11:15:26;9.65;;;4.22;;
485;SDS011;229;48.734;9.340;2023-04-15T11:17:54;7.43;;;4.65;;
485;SDS011;229;48.734;9.340;2023-04-15T11:20:21;6.40;;;4.75;;
485;SDS011;229;48.734;9.340;2023-04-15T11:22:50;5.03;;;4.50;;
485;SDS011;229;48.734;9.340;2023-04-15T11:25:21;9.30;;;5.07;;
485;SDS011;229;48.734;9.340;2023-04-15T11:27:49;8.00;;;5.20;;
485;SDS011;229;48.734;9.340;2023-04-15T11:30:17;7.20;;;5.05;;
485;SDS011;229;48.734;9.340;2023-04-15T11:32:45;7.68;;;5.40;;
485;SDS011;229;48.734;9.340;2023-04-15T11:35:12;5.65;;;5.10;;
485;SDS011;229;48.734;9.340;2023-04-15T11:37:40;9.63;;;4.85;;
485;SDS011;229;48.734;9.340;2023-04-15T11:40:09;11.38;;;5.38;;
485;SDS011;229;48.734;9.340;2023-04-15T11:42:36;10.27;;;5.30;;
485;SDS011;229;48.734;9.340;2023-04-15T11:45:06;7.05;;;5.28;;
485;SDS011;229;48.734;9.340;2023-04-15T11:47:34;6.35;;;4.90;;
485;SDS011;229;48.734;9.340;2023-04-15T11:50:15;9.52;;;5.95;;
485;SDS011;229;48.734;9.340;2023-04-15T11:52:51;11.35;;;6.55;;
485;SDS011;229;48.734;9.340;2023-04-15T11:55:20;7.95;;;6.00;;
485;SDS011;229;48.734;9.340;2023-04-15T11:57:48;9.18;;;5.45;;
485;SDS011;229;48.734;9.340;2023-04-15T12:00:15;14.73;;;6.43;;
485;SDS011;229;48.734;9.340;2023-04-15T12:02:42;9.55;;;6.15;;
485;SDS011;229;48.734;9.340;2023-04-15T12:05:10;8.57;;;6.30;;
485;SDS011;229;48.734;9.340;2023-04-15T12:10:24;8.23;;;6.45;;
485;SDS011;229;48.734;9.340;2023-04-15T12:12:52;9.98;;;7.03;;
485;SDS011;229;48.734;9.340;2023-04-15T12:15:20;10.90;;;6.13;;
485;SDS011;229;48.734;9.340;2023-04-15T12:17:48;14.98;;;6.38;;
485;SDS011;229;48.734;9.340;2023-04-15T12:20:20;8.00;;;5.80;;
485;SDS011;229;48.734;9.340;2023-04-15T12:22:47;9.55;;;6.10;;
485;SDS011;229;48.734;9.340;2023-04-15T12:25:15;11.68;;;6.00;;
485;SDS011;229;48.734;9.340;2023-04-15T12:27:50;11.15;;;6.20;;
485;SDS011;229;48.734;9.340;2023-04-15T12:30:18;9.40;;;6.20;;
485;SDS011;229;48.734;9.340;2023-04-15T12:32:45;8.13;;;4.80;;
485;SDS011;229;48.734;9.340;2023-04-15T12:35:13;10.43;;;4.85;;
485;SDS011;229;48.734;9.340;2023-04-15T12:37:40;6.28;;;5.03;;
485;SDS011;229;48.734;9.340;2023-04-15T12:40:08;9.30;;;4.85;;
485;SDS011;229;48.734;9.340;2023-04-15T12:42:35;7.00;;;5.70;;
485;SDS011;229;48.734;9.340;2023-04-15T12:45:04;10.30;;;5.45;;
485;SDS011;229;48.734;9.340;2023-04-15T12:47:32;6.30;;;5.50;;
485;SDS011;229;48.734;9.340;2023-04-15T12:49:59;8.20;;;5.95;;
485;SDS011;229;48.734;9.340;2023-04-15T12:52:26;7.35;;;6.00;;
485;SDS011;229;48.734;9.340;2023-04-15T12:54:53;7.63;;;6.03;;
485;SDS011;229;48.734;9.340;2023-04-15T12:57:20;7.50;;;6.13;;
485;SDS011;229;48.734;9.340;2023-04-15T12:59:47;8.40;;;6.07;;
485;SDS011;229;48.734;9.340;2023-04-15T13:02:16;8.20;;;5.70;;
485;SDS011;229;48.734;9.340;2023-04-15T13:04:45;8.13;;;6.20;;
485;SDS011;229;48.734;9.340;2023-04-15T13:07:12;7.05;;;5.60;;
485;SDS011;229;48.734;9.340;2023-04-15T13:09:39;6.45;;;5.60;;
485;SDS011;229;48.734;9.340;2023-04-15T13:12:06;6.03;;;5.72;;
485;SDS011;229;48.734;9.340;2023-04-15T13:14:34;5.45;;;5.15;;
485;SDS011;229;48.734;9.340;2023-04-15T13:17:01;7.45;;;5.25;;
485;SDS011;229;48.734;9.340;2023-04-15T13:19:35;6.57;;;5.75;;
485;SDS011;229;48.734;9.340;2023-04-15T13:22:02;7.60;;;6.20;;
485;SDS011;229;48.734;9.340;2023-04-15T13:24:31;7.30;;;5.57;;
485;SDS011;229;48.734;9.340;2023-04-15T13:26:58;8.60;;;5.70;;
485;SDS011;229;48.734;9.340;2023-04-15T13:29:25;6.60;;;5.25;;
485;SDS011;229;48.734;9.340;2023-04-15T13:31:52;6.22;;;5.70;;
485;SDS011;229;48.734;9.340;2023-04-15T13:34:19;8.27;;;5.65;;
485;SDS011;229;48.734;9.340;2023-04-15T13:36:48;6.55;;;5.75;;
485;SDS011;229;48.734;9.340;2023-04-15T13:39:15;7.55;;;6.60;;
485;SDS011;229;48.734;9.340;2023-04-15T13:41:42;10.05;;;6.32;;
485;SDS011;229;48.734;9.340;2023-04-15T13:44:10;7.25;;;4.88;;
485;SDS011;229;48.734;9.340;2023-04-15T13:46:37;6.85;;;5.13;;
485;SDS011;229;48.734;9.340;2023-04-15T13:49:05;10.32;;;5.50;;
485;SDS011;229;48.734;9.340;2023-04-15T13:51:33;5.65;;;5.30;;
485;SDS011;229;48.734;9.340;2023-04-15T13:54:02;11.45;;;5.72;;
485;SDS011;229;48.734;9.340;2023-04-15T13:56:29;6.20;;;4.40;;
485;SDS011;229;48.734;9.340;2023-04-15T13:58:56;8.23;;;5.45;;
485;SDS011;229;48.734;9.340;2023-04-15T14:01:26;5.18;;;4.75;;
485;SDS011;229;48.734;9.340;2023-04-15T14:03:53;5.88;;;5.05;;
485;SDS011;229;48.734;9.340;2023-04-15T14:06:20;6.28;;;5.22;;
485;SDS011;229;48.734;9.340;2023-04-15T14:08:48;3.80;;;3.60;;
485;SDS011;229;48.734;9.340;2023-04-15T14:11:16;3.28;;;3.08;;
485;SDS011;229;48.734;9.340;2023-04-15T14:13:43;5.78;;;3.60;;
485;SDS011;229;48.734;9.340;2023-04-15T14:16:10;4.68;;;3.22;;
485;SDS011;229;48.734;9.340;2023-04-15T14:18:38;4.28;;;3.80;;
485;SDS011;229;48.734;9.340;2023-04-15T14:21:05;5.55;;;3.22;;
485;SDS011;229;48.734;9.340;2023-04-15T14:23:32;4.55;;;3.60;;
485;SDS011;229;48.734;9.340;2023-04-15T14:26:00;4.32;;;3.65;;
485;SDS011;229;48.734;9.340;2023-04-15T14:28:28;3.90;;;3.70;;
485;SDS011;229;48.734;9.340;2023-04-15T14:30:56;3.88;;;3.67;;
485;SDS011;229;48.734;9.340;2023-04-15T14:33:23;4.10;;;3.45;;
485;SDS011;229;48.734;9.340;2023-04-15T14:35:50;4.82;;;3.67;;
485;SDS011;229;48.734;9.340;2023-04-15T14:38:17;4.65;;;3.65;;
485;SDS011;229;48.734;9.340;2023-04-15T14:40:46;3.95;;;3.75;;
485;SDS011;229;48.734;9.340;2023-04-15T14:43:13;4.30;;;4.00;;
485;SDS011;229;48.734;9.340;2023-04-15T14:45:42;10.80;;;6.55;;
485;SDS011;229;48.734;9.340;2023-04-15T14:48:09;5.88;;;5.40;;
485;SDS011;229;48.734;9.340;2023-04-15T14:50:36;6.30;;;4.05;;
485;SDS011;229;48.734;9.340;2023-04-15T14:53:04;5.07;;;4.10;;
485;SDS011;229;48.734;9.340;2023-04-15T14:55:31;4.88;;;4.13;;
485;SDS011;229;48.734;9.340;2023-04-15T14:57:59;3.67;;;3.47;;
485;SDS011;229;48.734;9.340;2023-04-15T15:00:27;5.20;;;4.07;;
485;SDS011;229;48.734;9.340;2023-04-15T15:02:55;3.60;;;3.30;;
485;SDS011;229;48.734;9.340;2023-04-15T15:05:22;4.63;;;3.45;;
485;SDS011;229;48.734;9.340;2023-04-15T15:07:50;3.90;;;3.70;;
485;SDS011;229;48.734;9.340;2023-04-15T15:10:17;3.67;;;3.35;;
485;SDS011;229;48.734;9.340;2023-04-15T15:12:46;3.63;;;3.50;;
485;SDS011;229;48.734;9.340;2023-04-15T15:15:13;3.85;;;3.50;;
485;SDS011;229;48.734;9.340;2023-04-15T15:17:40;4.47;;;3.40;;
485;SDS011;229;48.734;9.340;2023-04-15T15:20:09;3.20;;;3.00;;
485;SDS011;229;48.734;9.340;2023-04-15T15:22:36;4.03;;;3.88;;
485;SDS011;229;48.734;9.340;2023-04-15T15:25:03;3.33;;;3.15;;
485;SDS011;229;48.734;9.340;2023-04-15T15:27:31;4.07;;;3.90;;
485;SDS011;229;48.734;9.340;2023-04-15T15:29:58;4.68;;;4.32;;
485;SDS011;229;48.734;9.340;2023-04-15T15:32:25;5.10;;;4.38;;
485;SDS011;229;48.734;9.340;2023-04-15T15:34:52;3.67;;;3.50;;
485;SDS011;229;48.734;9.340;2023-04-15T15:37:21;4.30;;;4.05;;
485;SDS011;229;48.734;9.340;2023-04-15T15:39:48;4.28;;;4.00;;
485;SDS011;229;48.734;9.340;2023-04-15T15:42:15;4.95;;;4.70;;
485;SDS011;229;48.734;9.340;2023-04-15T15:44:42;4.70;;;4.43;;
485;SDS011;229;48.734;9.340;2023-04-15T15:47:10;4.40;;;4.10;;
485;SDS011;229;48.734;9.340;2023-04-15T15:49:37;5.28;;;4.93;;